McLeod, ND (58057)

2:30 PM CST on November 26, 2014 (GMT -0600)
RAWS SHEYENNE ND US | Change Station
CLOSE
Current Station
Personal Weather Station
Location: Sheldon, ND
Elevation: 1069 ft
Nearby Weather Stations

Elev 1069 ft 46.47 °N, 97.32 °W | Updated 41 minutes ago

Mostly Cloudy
Mostly Cloudy
5 °F
Feels Like -9 °F
N
9
Wind Variable Wind from North
Gusts 16.0 mph

Today
High -- | Low -- °F
--% Chance of Precip.
Yesterday
High -- | Low -- °F
Precip. -- in
7:45 AM 4:46 PM
Waxing Crescent, 22% visible
Pressure 30.41 in
Visibility 10.0 miles
Clouds Few 6000 ft
Scattered Clouds 9500 ft
Windchill -9 °F
Dew Point -6 °F
Humidity 59%
Rainfall 0.00 in
Snow Depth Not available.
UV 1 out of 12
Pollen .10 out of 12
Air Quality Not available.
Flu Activity Not available.
METAR KGWR 262015Z AUTO 36013KT 10SM FEW060 SCT095 M13/M20 A3041 RMK A01 P000

More Conditions Fewer Conditions

Pressure 30.41 in
Visibility 10.0 miles
Clouds Few 6000 ft
Scattered Clouds 9500 ft
Windchill -9 °F
Dew Point -6 °F
Humidity 59%
Rainfall 0.00 in
Snow Depth Not available.
UV 1 out of 12
Pollen .10 out of 12
Air Quality Not available.
Flu Activity Not available.
METAR KGWR 262015Z AUTO 36013KT 10SM FEW060 SCT095 M13/M20 A3041 RMK A01 P000

More Conditions Fewer Conditions

10-Day Weather Forecast

Almanac

Astronomy

Nov. 26, 2014 Rise Set
Actual Time
Civil Twilight
Nautical Twilight
Astronomical Twilight
Moon
Length of Visible Light
Length of Day
Tomorrow will be .
, % of the Moon is Illuminated

Today's Extremes

State Highs State Lows

Community

WunderPhotos

Upload Photos

1,773,853 photos uploaded!

WunderBlogs® & News

Nearby

Air Quality

  Air Quality AQ Index Pollutant
Not available.

Snow Depth

Station Depth Elevation

Earthquake Activity

City Distance Mag. Time & Date
Minimum magnitude displayed is 2.5.

Coastal Water Temperatures

Place Temperature

Nearby Weather Stations